Impacts METAR Board
IDs:

KAQO - Llano Muni, TX, US

Updated at: 0000 UTC 19 Oct 2019
Potential Impact None Slight Moderate High
Time 18/12Z 18/13Z 18/14Z 18/15Z 18/16Z 18/17Z 18/18Z 18/19Z 18/20Z 18/21Z 18/22Z 18/23Z 19/00Z
Temp48 48 55 63 68 73 81 82 84 86 86 84 79
Dewpt43 45 46 46 46 46 50 52 54 54 54 52 52
Altim29.93 29.92 29.93 29.92 29.90 29.89 29.85 29.81 29.77 29.74 29.73 29.73 29.74
VIS10 10 10 10 10 10 10 10 10 10 10 10 10
CIG-- -- -- -- -- -- -- -- -- -- -- -- --
CoverCLRCLRCLRCLRCLRCLRCLRCLRCLRCLRCLRCLRCLR
FltCatVFRVFRVFRVFRVFRVFRVFRVFRVFRVFRVFRVFRVFR
WX--------------------------
WDir001109010012017090120110100150130
WSpd0 0 4 6 6 5 6 8 10 10 10 7 4
WGst-- -- -- -- -- -- -- -- -- 15 -- 14 --
Raw hourly METARs
KAQO 181155Z AUTO 00000KT 10SM CLR 09/06 A2993 RMK AO2
KAQO 181255Z AUTO 00000KT 10SM CLR 09/07 A2992 RMK AO2
KAQO 181355Z AUTO 11004KT 10SM CLR 13/08 A2993 RMK AO2
KAQO 181455Z AUTO 09006KT 10SM CLR 17/08 A2992 RMK AO2
KAQO 181555Z AUTO 10006KT 10SM CLR 20/08 A2990 RMK AO2
KAQO 181655Z AUTO 12005KT 10SM CLR 23/08 A2989 RMK AO2
KAQO 181755Z AUTO 17006KT 10SM CLR 27/10 A2985 RMK AO2
KAQO 181855Z AUTO 09008KT 10SM CLR 28/11 A2981 RMK AO2
KAQO 181955Z AUTO 12010KT 10SM CLR 29/12 A2977 RMK AO2
KAQO 182055Z AUTO 11010G15KT 10SM CLR 30/12 A2974 RMK AO2
KAQO 182155Z AUTO 10010KT 10SM CLR 30/12 A2973 RMK AO2
KAQO 182255Z AUTO 15007G14KT 10SM CLR 29/11 A2973 RMK AO2
KAQO 182355Z AUTO 13004KT 10SM CLR 26/11 A2974 RMK AO2